Time;durP1;ratioP1;P1;durP2;ratioP2;P2;SDS_P1;SDS_P2;PMS_P1;PMS_P2;Temp;Humidity;BMP_temperature;BMP_pressure;BME280_temperature;BME280_humidity;BME280_pressure;Samples;Min_cycle;Max_cycle;Signal;HPM_P1;HPM_P2
2023/06/09 03:02:20;;;;;;;38.43;35.87;;;12.30;99.90;;;;;;5108169;23;20314;-73
2023/06/09 03:04:46;;;;;;;31.67;29.57;;;12.20;99.90;;;;;;4988108;28;20557;-73
2023/06/09 03:07:16;;;;;;;23.57;21.57;;;12.20;99.90;;;;;;4968831;28;20192;-73
2023/06/09 03:09:42;;;;;;;24.67;22.83;;;12.20;99.90;;;;;;4994987;28;20192;-73
2023/06/09 03:12:09;;;;;;;25.50;23.17;;;12.10;99.90;;;;;;4979080;28;20211;-73
2023/06/09 03:14:35;;;;;;;20.33;18.73;;;12.20;99.90;;;;;;4972022;28;20189;-73
2023/06/09 03:17:01;;;;;;;27.87;25.67;;;12.20;99.90;;;;;;5018016;23;20236;-77
2023/06/09 03:19:27;;;;;;;22.60;20.87;;;12.20;99.90;;;;;;4988092;28;20192;-77
2023/06/09 03:21:53;;;;;;;23.90;21.93;;;12.20;99.90;;;;;;5005223;28;20624;-77
2023/06/09 03:24:19;;;;;;;32.93;30.73;;;12.10;99.90;;;;;;5004128;28;20192;-77
2023/06/09 03:26:46;;;;;;;25.83;23.70;;;12.10;99.90;;;;;;4986364;28;20201;-77
2023/06/09 03:29:12;;;;;;;43.67;40.80;;;12.20;99.90;;;;;;4961903;28;20193;-77
2023/06/09 03:31:37;;;;;;;44.80;41.77;;;12.20;99.90;;;;;;4988218;28;20216;-76
2023/06/09 03:34:03;;;;;;;28.70;26.43;;;12.20;99.90;;;;;;4986157;28;20192;-77
2023/06/09 03:36:29;;;;;;;29.73;27.60;;;12.20;99.90;;;;;;4971791;28;20269;-77
2023/06/09 03:38:55;;;;;;;44.27;41.60;;;12.20;99.90;;;;;;4962892;28;20295;-77
2023/06/09 03:41:21;;;;;;;20.10;18.30;;;12.20;99.90;;;;;;4954178;28;20193;-77
2023/06/09 03:43:47;;;;;;;28.40;26.47;;;12.20;99.90;;;;;;4962696;28;20192;-77
2023/06/09 03:46:13;;;;;;;24.13;22.43;;;12.20;99.90;;;;;;4962842;28;20212;-77
2023/06/09 03:48:42;;;;;;;28.73;26.63;;;12.20;99.90;;;;;;4981864;28;20200;-77
2023/06/09 03:51:07;;;;;;;27.13;25.30;;;12.20;99.90;;;;;;4974658;28;20227;-78
2023/06/09 03:53:33;;;;;;;23.13;21.43;;;12.30;99.90;;;;;;4984854;28;20214;-78
2023/06/09 03:55:59;;;;;;;27.70;25.70;;;12.30;99.90;;;;;;4981924;28;20217;-79
2023/06/09 03:58:26;;;;;;;36.13;33.57;;;12.30;99.90;;;;;;4976571;28;20188;-78
2023/06/09 04:00:51;;;;;;;35.00;32.73;;;12.30;99.90;;;;;;4981773;28;20197;-78
2023/06/09 04:03:20;;;;;;;35.83;33.63;;;12.40;99.90;;;;;;4995066;28;20193;-79
2023/06/09 04:05:47;;;;;;;39.10;36.43;;;12.40;99.90;;;;;;4977352;28;20231;-78
2023/06/09 04:08:13;;;;;;;40.63;38.07;;;12.50;99.90;;;;;;4996795;28;20189;-78
2023/06/09 04:10:40;;;;;;;49.67;46.63;;;12.60;99.90;;;;;;4989539;28;20220;-79
2023/06/09 04:13:07;;;;;;;49.20;46.23;;;12.60;99.90;;;;;;4973396;28;20217;-78
2023/06/09 04:15:33;;;;;;;37.00;34.73;;;12.60;99.90;;;;;;4975251;28;20212;-78
2023/06/09 04:17:59;;;;;;;46.57;43.57;;;12.60;99.90;;;;;;4975785;28;20189;-78
2023/06/09 04:20:25;;;;;;;48.33;45.43;;;12.70;99.90;;;;;;4977154;28;20189;-78
2023/06/09 04:22:52;;;;;;;46.70;43.83;;;12.70;99.90;;;;;;4993576;28;20240;-78
2023/06/09 04:25:28;;;;;;;52.07;49.07;;;12.80;99.90;;;;;;4974368;28;20193;-78
2023/06/09 04:27:54;;;;;;;36.70;34.27;;;12.80;99.90;;;;;;4968556;28;20197;-78
2023/06/09 04:30:25;;;;;;;33.87;31.57;;;12.90;99.90;;;;;;4983419;28;20224;-78
2023/06/09 04:32:52;;;;;;;22.47;20.77;;;13.00;99.90;;;;;;4992153;28;20770;-79
2023/06/09 04:35:22;;;;;;;16.90;15.40;;;13.10;99.90;;;;;;4974276;28;20256;-78
2023/06/09 04:37:49;;;;;;;27.50;25.73;;;13.30;99.90;;;;;;4990580;28;20204;-78
2023/06/09 04:40:23;;;;;;;28.67;26.80;;;13.40;99.90;;;;;;4965075;29;20186;-78
2023/06/09 04:42:55;;;;;;;18.23;16.83;;;13.50;99.90;;;;;;4974899;28;20244;-79
2023/06/09 04:45:27;;;;;;;18.13;16.77;;;13.60;99.90;;;;;;4962164;28;20213;-78
2023/06/09 04:47:59;;;;;;;17.13;15.73;;;13.80;99.90;;;;;;4950389;28;20196;-77
2023/06/09 04:50:29;;;;;;;25.30;23.37;;;13.90;99.90;;;;;;4960247;28;20944;-77
2023/06/09 04:52:57;;;;;;;23.20;21.50;;;14.00;99.90;;;;;;4970672;28;20201;-78
2023/06/09 04:55:25;;;;;;;77.90;73.60;;;14.20;99.90;;;;;;4967058;28;20205;-72
2023/06/09 04:57:55;;;;;;;52.73;49.43;;;14.40;99.90;;;;;;4943525;28;20212;-72
2023/06/09 05:00:26;;;;;;;164.97;155.37;;;14.60;99.90;;;;;;4965135;28;20220;-72
2023/06/09 05:02:53;;;;;;;53.97;50.73;;;14.80;99.90;;;;;;4973719;28;20565;-72
2023/06/09 05:05:19;;;;;;;264.30;249.80;;;15.10;99.90;;;;;;4948181;28;20225;-72
2023/06/09 05:07:45;;;;;;;52.73;49.83;;;15.60;99.90;;;;;;4972854;28;20204;-72
2023/06/09 05:10:11;;;;;;;51.57;48.60;;;16.30;99.90;;;;;;4968326;28;20213;-72
2023/06/09 05:12:38;;;;;;;37.33;35.13;;;16.90;99.90;;;;;;4972867;28;20193;-72
2023/06/09 05:15:04;;;;;;;21.50;19.80;;;17.60;99.90;;;;;;4973041;28;20219;-72
2023/06/09 05:17:31;;;;;;;18.42;16.80;;;18.10;99.90;;;;;;4964625;28;20665;-72
2023/06/09 05:19:58;;;;;;;23.15;21.85;;;18.40;99.90;;;;;;4972975;28;20189;-71
2023/06/09 05:22:24;;;;;;;28.85;27.13;;;18.80;99.90;;;;;;4947713;28;20657;-72
2023/06/09 05:24:49;;;;;;;40.45;37.83;;;19.30;99.90;;;;;;4965973;28;20797;-71
2023/06/09 05:27:15;;;;;;;59.72;56.03;;;19.60;99.90;;;;;;4965494;28;20212;-72
2023/06/09 05:29:41;;;;;;;31.45;29.45;;;19.90;99.90;;;;;;4965052;28;20191;-71
2023/06/09 05:32:07;;;;;;;18.52;17.33;;;20.10;99.90;;;;;;4972934;28;20271;-71
2023/06/09 05:34:33;;;;;;;17.25;15.85;;;20.40;99.90;;;;;;4972651;28;20545;-71
2023/06/09 05:36:59;;;;;;;18.30;16.88;;;20.60;99.90;;;;;;4972273;28;20216;-72
2023/06/09 05:39:25;;;;;;;29.52;27.42;;;20.90;99.90;;;;;;4967045;28;20181;-72
2023/06/09 05:41:51;;;;;;;16.13;14.73;;;21.10;99.90;;;;;;4964467;28;20199;-71
2023/06/09 05:44:18;;;;;;;16.17;14.90;;;21.30;99.90;;;;;;4973776;28;20624;-70
2023/06/09 05:46:44;;;;;;;12.63;11.50;;;21.70;99.90;;;;;;4972775;28;20255;-72
2023/06/09 05:49:10;;;;;;;11.02;10.23;;;22.10;99.90;;;;;;4964191;28;20216;-73
2023/06/09 05:51:36;;;;;;;11.82;9.50;;;22.40;99.90;;;;;;4964781;28;20614;-73
2023/06/09 05:54:03;;;;;;;15.35;14.32;;;22.70;99.90;;;;;;4964706;28;20272;-71
2023/06/09 05:56:30;;;;;;;14.25;12.90;;;22.80;99.90;;;;;;4964401;28;20590;-71
2023/06/09 05:59:03;;;;;;;10.85;10.05;;;23.00;99.90;;;;;;4964774;28;20195;-71
2023/06/09 06:01:30;;;;;;;11.48;10.45;;;23.10;99.90;;;;;;4972944;28;20328;-72
2023/06/09 06:03:56;;;;;;;11.93;11.07;;;23.20;99.90;;;;;;4972103;28;20732;-70
2023/06/09 06:06:22;;;;;;;13.73;12.75;;;23.50;99.90;;;;;;4972576;28;20279;-70
2023/06/09 06:08:48;;;;;;;8.43;7.82;;;23.60;99.90;;;;;;4966139;28;20208;-70
2023/06/09 06:11:14;;;;;;;12.07;11.27;;;23.90;99.90;;;;;;4972273;28;20225;-70
2023/06/09 06:13:40;;;;;;;9.98;9.18;;;24.30;99.90;;;;;;4972503;28;20196;-71
2023/06/09 06:16:05;;;;;;;9.07;8.00;;;24.50;99.90;;;;;;4973054;28;20248;-70
2023/06/09 06:18:31;;;;;;;8.85;8.25;;;24.50;99.90;;;;;;4971329;28;20196;-70
2023/06/09 06:20:57;;;;;;;10.50;7.53;;;24.50;99.90;;;;;;4972359;28;20200;-70
2023/06/09 06:23:22;;;;;;;9.48;8.48;;;24.30;99.90;;;;;;4964328;28;20199;-71
2023/06/09 06:25:48;;;;;;;9.13;8.43;;;23.90;99.90;;;;;;4954745;28;20232;-71
2023/06/09 06:28:15;;;;;;;8.80;7.93;;;23.90;99.90;;;;;;4954550;28;20239;-71
2023/06/09 06:30:42;;;;;;;9.15;8.55;;;24.30;99.90;;;;;;4963928;28;20220;-72
2023/06/09 06:33:08;;;;;;;9.30;8.57;;;24.60;99.90;;;;;;4972034;28;20184;-71
2023/06/09 06:35:33;;;;;;;7.45;6.85;;;25.00;99.90;;;;;;4972405;28;20580;-70
2023/06/09 06:37:59;;;;;;;7.43;6.75;;;25.60;99.90;;;;;;4947545;28;20184;-71
2023/06/09 06:40:26;;;;;;;7.85;7.07;;;25.80;99.90;;;;;;4972049;28;20188;-71
2023/06/09 06:42:52;;;;;;;11.73;11.02;;;25.80;99.90;;;;;;4954688;28;20200;-71
2023/06/09 06:45:18;;;;;;;13.68;12.77;;;26.30;99.30;;;;;;4971720;28;20564;-71
2023/06/09 06:47:45;;;;;;;12.00;11.15;;;26.50;98.00;;;;;;4971242;28;20188;-71
2023/06/09 06:50:14;;;;;;;10.52;9.93;;;26.70;97.10;;;;;;4971603;28;20243;-71
2023/06/09 06:52:41;;;;;;;10.13;9.63;;;26.90;97.10;;;;;;4953118;28;20186;-71
2023/06/09 06:55:07;;;;;;;6.85;6.20;;;27.10;97.00;;;;;;4965559;28;20216;-71
2023/06/09 06:57:38;;;;;;;7.05;6.50;;;27.50;95.40;;;;;;4946093;28;20186;-72
2023/06/09 07:00:09;;;;;;;6.93;6.50;;;27.90;94.50;;;;;;4971599;28;20664;-72
2023/06/09 07:02:35;;;;;;;6.32;5.93;;;27.70;93.90;;;;;;4943786;28;20205;-71
2023/06/09 07:05:02;;;;;;;6.90;6.47;;;27.70;93.20;;;;;;4944102;29;20205;-72
2023/06/09 07:07:28;;;;;;;6.90;6.40;;;27.50;92.70;;;;;;4940399;28;20190;-71
2023/06/09 07:09:54;;;;;;;7.28;6.82;;;27.50;93.10;;;;;;4953649;28;20248;-71
2023/06/09 07:12:21;;;;;;;10.52;9.82;;;27.90;92.80;;;;;;4943849;29;20213;-79
2023/06/09 07:14:47;;;;;;;9.75;9.23;;;27.70;91.40;;;;;;4973882;28;20185;-80
2023/06/09 07:17:12;;;;;;;7.85;7.15;;;27.50;91.50;;;;;;4975481;28;20287;-80
2023/06/09 07:19:38;;;;;;;9.15;8.55;;;27.50;91.60;;;;;;4975218;28;20209;-81
2023/06/09 07:22:04;;;;;;;9.65;9.10;;;27.40;91.70;;;;;;4958530;28;20886;-80
2023/06/09 07:24:30;;;;;;;7.70;7.22;;;27.00;91.40;;;;;;4959900;28;20193;-81
2023/06/09 07:26:56;;;;;;;7.45;6.85;;;26.80;92.60;;;;;;4967307;28;20213;-81
2023/06/09 07:29:22;;;;;;;7.47;6.97;;;27.20;91.80;;;;;;4968037;28;20213;-79
2023/06/09 07:31:47;;;;;;;7.45;6.95;;;27.60;91.30;;;;;;4959942;28;20303;-81
2023/06/09 07:34:14;;;;;;;7.22;6.82;;;27.60;91.10;;;;;;4963423;28;20280;-81
2023/06/09 07:36:40;;;;;;;7.18;6.47;;;27.50;91.00;;;;;;4960807;28;20319;-80
2023/06/09 07:39:07;;;;;;;8.30;7.80;;;27.50;91.30;;;;;;4980569;28;20180;-79
2023/06/09 07:41:33;;;;;;;13.05;12.10;;;27.80;90.30;;;;;;4987805;28;20484;-80
2023/06/09 07:43:59;;;;;;;7.95;7.38;;;27.30;89.30;;;;;;4960604;28;20191;-79
2023/06/09 07:46:25;;;;;;;8.57;8.07;;;27.20;90.30;;;;;;4970130;28;20209;-82
2023/06/09 07:48:51;;;;;;;14.77;13.95;;;27.40;90.00;;;;;;4965962;28;20598;-72
2023/06/09 07:51:18;;;;;;;10.98;10.27;;;27.60;88.10;;;;;;4974691;28;20247;-71
2023/06/09 07:53:45;;;;;;;10.70;10.10;;;27.70;89.90;;;;;;4962771;28;20186;-70
2023/06/09 07:56:11;;;;;;;10.00;9.40;;;28.10;88.10;;;;;;4946069;28;20761;-70
2023/06/09 07:58:37;;;;;;;8.05;7.55;;;28.40;87.00;;;;;;4965654;28;20313;-70
2023/06/09 08:01:03;;;;;;;8.07;7.57;;;28.10;85.60;;;;;;4968931;28;20235;-71
2023/06/09 08:03:34;;;;;;;8.95;8.45;;;27.70;87.70;;;;;;4974458;28;20275;-73
2023/06/09 08:06:02;;;;;;;8.63;8.13;;;27.90;86.90;;;;;;4958923;28;20217;-72
2023/06/09 08:08:31;;;;;;;8.10;7.57;;;28.10;86.30;;;;;;4969283;28;20240;-69
2023/06/09 08:10:58;;;;;;;9.02;8.55;;;28.00;86.40;;;;;;4962461;28;20209;-71
2023/06/09 08:13:24;;;;;;;10.68;10.15;;;27.30;88.70;;;;;;4950113;28;20189;-70
2023/06/09 08:15:50;;;;;;;9.20;8.68;;;27.20;88.10;;;;;;4964320;28;20227;-71
2023/06/09 08:18:16;;;;;;;6.75;6.35;;;27.10;88.60;;;;;;4973189;28;20185;-71
2023/06/09 08:20:42;;;;;;;7.38;6.78;;;27.30;89.00;;;;;;4965880;28;20201;-71
2023/06/09 08:23:08;;;;;;;7.47;7.03;;;27.40;88.00;;;;;;4956850;28;20223;-72
2023/06/09 08:25:35;;;;;;;9.50;8.80;;;27.40;88.70;;;;;;4966185;28;20212;-72
2023/06/09 08:28:01;;;;;;;9.00;8.50;;;27.60;87.60;;;;;;4967605;28;20213;-72
2023/06/09 08:30:27;;;;;;;9.35;8.75;;;27.70;87.40;;;;;;4970928;28;20220;-72
2023/06/09 08:32:53;;;;;;;8.18;7.57;;;28.00;86.90;;;;;;4973840;28;20751;-72
2023/06/09 08:35:20;;;;;;;9.50;8.90;;;27.60;87.60;;;;;;4955977;28;20818;-72
2023/06/09 08:37:47;;;;;;;7.10;6.55;;;27.90;87.60;;;;;;4948369;28;20597;-72
2023/06/09 08:40:13;;;;;;;7.85;7.30;;;27.60;88.30;;;;;;4971732;28;20196;-72
2023/06/09 08:42:39;;;;;;;7.22;6.82;;;27.60;86.80;;;;;;4972148;28;20206;-72
2023/06/09 08:45:06;;;;;;;6.45;6.07;;;27.40;87.30;;;;;;4973534;28;20196;-73
2023/06/09 08:47:33;;;;;;;11.10;8.00;;;28.00;87.40;;;;;;4965018;28;20194;-75
2023/06/09 08:50:02;;;;;;;8.60;8.10;;;28.30;86.90;;;;;;4937310;29;20197;-71
2023/06/09 08:52:28;;;;;;;12.60;11.30;;;28.50;85.30;;;;;;4974279;28;20279;-76
2023/06/09 08:54:56;;;;;;;10.13;9.27;;;28.60;84.50;;;;;;4975911;28;20197;-69
2023/06/09 08:57:22;;;;;;;8.63;8.13;;;28.20;85.10;;;;;;4970741;28;20283;-70
2023/06/09 08:59:50;;;;;;;9.07;8.50;;;28.10;84.20;;;;;;4957218;28;20209;-79
2023/06/09 09:02:16;;;;;;;9.15;8.57;;;28.20;83.50;;;;;;4952518;28;20276;-77
2023/06/09 09:04:43;;;;;;;8.75;8.32;;;28.40;83.50;;;;;;4975326;28;20204;-71
2023/06/09 09:07:11;;;;;;;7.65;7.05;;;28.80;82.00;;;;;;4974679;28;20982;-80
2023/06/09 09:09:40;;;;;;;7.63;7.15;;;28.70;79.80;;;;;;4955480;28;20819;-72
2023/06/09 09:12:14;;;;;;;6.20;5.80;;;28.90;78.60;;;;;;4951616;28;20214;-70
2023/06/09 09:14:42;;;;;;;6.55;6.20;;;29.00;77.90;;;;;;4957284;28;20189;-70
2023/06/09 09:17:09;;;;;;;6.55;5.97;;;28.70;79.00;;;;;;4954066;28;20220;-70
2023/06/09 09:19:36;;;;;;;6.38;5.97;;;28.50;78.50;;;;;;4964723;28;20272;-70
2023/06/09 09:22:08;;;;;;;5.63;5.32;;;28.60;78.70;;;;;;4965153;28;20510;-71
2023/06/09 09:24:35;;;;;;;6.93;6.53;;;28.50;77.40;;;;;;4973359;28;20197;-71
2023/06/09 09:27:04;;;;;;;5.55;5.05;;;28.50;78.10;;;;;;4970841;28;20223;-71
2023/06/09 09:29:39;;;;;;;4.95;4.65;;;28.60;76.60;;;;;;4971769;28;20196;-72
2023/06/09 09:32:06;;;;;;;5.50;5.20;;;28.60;76.40;;;;;;4966942;28;20757;-69
2023/06/09 09:34:32;;;;;;;5.60;5.20;;;28.80;76.80;;;;;;4972330;28;20208;-70
2023/06/09 09:36:58;;;;;;;5.18;4.88;;;29.00;74.30;;;;;;4971281;28;20205;-70
2023/06/09 09:39:24;;;;;;;5.40;5.10;;;28.80;74.10;;;;;;4964514;28;20544;-70
2023/06/09 09:42:07;;;;;;;5.80;5.50;;;28.90;74.00;;;;;;4972683;28;20199;-70
2023/06/09 09:44:41;;;;;;;5.45;5.15;;;29.10;73.10;;;;;;4973883;28;20664;-70
2023/06/09 09:47:10;;;;;;;7.97;5.28;;;29.00;73.70;;;;;;4973962;28;20225;-69
2023/06/09 09:49:36;;;;;;;5.35;4.95;;;29.20;73.10;;;;;;4973036;28;20731;-74
2023/06/09 09:52:06;;;;;;;4.80;4.45;;;29.40;73.30;;;;;;4973101;28;20217;-76
2023/06/09 09:54:36;;;;;;;4.72;4.50;;;29.90;71.80;;;;;;4972593;28;20284;-74
2023/06/09 09:57:03;;;;;;;5.05;4.78;;;29.40;71.40;;;;;;4946293;28;20212;-74
2023/06/09 09:59:29;;;;;;;5.20;4.80;;;29.20;72.50;;;;;;4970572;28;20208;-74
2023/06/09 10:01:56;;;;;;;6.22;5.53;;;28.90;72.70;;;;;;4952146;28;20232;-74
2023/06/09 10:04:23;;;;;;;13.90;6.10;;;28.90;74.20;;;;;;4969400;28;20720;-73
2023/06/09 10:06:58;;;;;;;4.95;4.70;;;29.20;72.90;;;;;;4963362;28;20344;-80
2023/06/09 10:09:25;;;;;;;5.15;4.90;;;29.50;71.90;;;;;;4962720;28;20649;-79
2023/06/09 10:11:54;;;;;;;4.85;4.65;;;29.70;71.40;;;;;;4969953;28;20282;-79
2023/06/09 10:14:21;;;;;;;5.10;4.78;;;29.20;73.20;;;;;;4981109;28;20208;-81
2023/06/09 10:16:49;;;;;;;5.20;4.90;;;29.70;71.80;;;;;;4954090;28;20223;-80
2023/06/09 10:19:17;;;;;;;5.88;5.47;;;30.40;73.10;;;;;;4972206;28;20252;-81
2023/06/09 10:21:43;;;;;;;6.57;6.28;;;31.00;69.20;;;;;;4961519;28;20199;-80
2023/06/09 10:24:12;;;;;;;5.53;5.22;;;30.20;70.20;;;;;;4976276;28;20201;-81
2023/06/09 10:26:38;;;;;;;5.35;4.95;;;30.70;69.10;;;;;;4971859;28;20209;-83
2023/06/09 10:29:12;;;;;;;5.88;5.57;;;30.90;68.20;;;;;;4960346;28;20685;-82
2023/06/09 10:31:41;;;;;;;6.75;6.35;;;30.70;68.70;;;;;;4952570;28;20220;-82
2023/06/09 10:34:09;;;;;;;11.93;11.32;;;31.00;68.70;;;;;;4977235;28;20287;-71
2023/06/09 10:36:38;;;;;;;12.50;11.88;;;31.30;67.30;;;;;;4965277;28;20213;-69
2023/06/09 10:39:18;;;;;;;12.13;11.50;;;31.50;67.70;;;;;;4971742;28;20327;-68
2023/06/09 10:41:58;;;;;;;12.88;12.18;;;31.30;67.50;;;;;;4972140;28;20200;-69
2023/06/09 10:44:34;;;;;;;8.93;8.52;;;31.40;66.50;;;;;;4971957;28;20200;-67
2023/06/09 10:46:59;;;;;;;20.42;19.35;;;31.40;66.80;;;;;;4947606;28;20265;-68
2023/06/09 10:49:25;;;;;;;13.23;12.52;;;32.10;65.20;;;;;;4971693;28;20197;-67
2023/06/09 10:51:52;;;;;;;13.77;13.15;;;32.10;64.70;;;;;;4971595;28;20245;-67
2023/06/09 10:54:19;;;;;;;14.02;13.30;;;32.10;63.80;;;;;;4967320;28;20184;-72
2023/06/09 10:56:52;;;;;;;19.55;18.55;;;31.40;65.20;;;;;;4972402;28;20209;-81
2023/06/09 10:59:24;;;;;;;12.13;11.52;;;30.60;66.20;;;;;;4982849;28;20189;-80
2023/06/09 11:02:02;;;;;;;16.15;15.38;;;31.10;67.40;;;;;;4967529;28;20199;-80
2023/06/09 11:04:46;;;;;;;15.50;14.75;;;31.40;65.80;;;;;;4975512;28;20193;-82
2023/06/09 11:07:14;;;;;;;16.65;15.85;;;31.30;65.40;;;;;;4959277;28;20295;-82
2023/06/09 11:09:47;;;;;;;12.95;12.15;;;31.80;64.00;;;;;;4979430;28;20196;-81
2023/06/09 11:12:25;;;;;;;11.57;10.98;;;32.00;63.80;;;;;;4971834;28;20252;-80
2023/06/09 11:14:57;;;;;;;16.05;15.25;;;32.30;62.80;;;;;;4967785;28;20202;-81
2023/06/09 11:17:39;;;;;;;21.83;20.77;;;32.20;61.90;;;;;;4961895;28;20224;-82
2023/06/09 11:20:26;;;;;;;38.35;36.50;;;32.60;60.40;;;;;;4970175;28;20189;-79
2023/06/09 11:22:51;;;;;;;29.67;28.13;;;33.30;59.00;;;;;;4972743;28;20323;-78
2023/06/09 11:25:20;;;;;;;15.13;14.43;;;32.50;58.80;;;;;;4957232;28;20209;-77
2023/06/09 11:27:55;;;;;;;12.70;12.05;;;30.80;61.30;;;;;;4966362;28;20199;-78
2023/06/09 11:30:25;;;;;;;10.07;9.57;;;29.70;65.20;;;;;;4968430;28;20220;-78
2023/06/09 11:32:55;;;;;;;15.40;14.70;;;30.20;65.30;;;;;;4977041;28;20259;-78
2023/06/09 11:35:30;;;;;;;16.15;15.10;;;31.70;60.90;;;;;;4964818;28;20199;-78
2023/06/09 11:38:03;;;;;;;17.98;17.05;;;31.80;61.10;;;;;;4977603;28;20212;-78
2023/06/09 11:40:35;;;;;;;15.98;15.23;;;32.20;59.10;;;;;;4968579;28;20330;-78
2023/06/09 11:43:06;;;;;;;9.55;8.73;;;32.40;58.70;;;;;;4976160;28;20200;-78
2023/06/09 11:45:32;;;;;;;13.93;13.23;;;30.50;60.80;;;;;;4958552;28;20349;-78
2023/06/09 11:48:04;;;;;;;12.40;11.77;;;30.10;61.70;;;;;;4977325;28;20222;-78
2023/06/09 11:50:47;;;;;;;11.93;11.20;;;30.70;61.40;;;;;;4978907;28;20223;-78
2023/06/09 11:53:17;;;;;;;14.35;13.63;;;31.60;59.70;;;;;;4978280;28;20197;-78
2023/06/09 11:55:45;;;;;;;23.00;21.80;;;32.40;58.70;;;;;;4979295;28;20925;-78
2023/06/09 11:58:12;;;;;;;20.05;18.70;;;33.30;57.20;;;;;;4978415;28;20188;-77
2023/06/09 12:00:41;;;;;;;26.58;25.30;;;33.30;55.80;;;;;;4971557;28;20196;-78
2023/06/09 12:03:07;;;;;;;16.77;15.93;;;32.50;56.40;;;;;;4961458;28;20342;-78
2023/06/09 12:05:34;;;;;;;10.15;9.55;;;30.40;59.10;;;;;;4961254;28;20308;-77
2023/06/09 12:08:02;;;;;;;11.43;10.80;;;30.50;60.10;;;;;;4954192;28;20558;-78
2023/06/09 12:10:29;;;;;;;12.02;11.23;;;31.10;59.60;;;;;;4978460;28;20226;-78
2023/06/09 12:12:58;;;;;;;21.88;20.83;;;31.60;57.60;;;;;;4974211;28;20600;-78
2023/06/09 12:15:26;;;;;;;30.15;28.67;;;32.60;56.60;;;;;;4973861;28;20716;-77
2023/06/09 12:17:56;;;;;;;29.27;27.88;;;32.50;56.70;;;;;;4976927;28;20188;-78
2023/06/09 12:20:35;;;;;;;22.30;21.20;;;32.40;55.80;;;;;;4962269;28;20189;-78
2023/06/09 12:23:12;;;;;;;28.67;27.25;;;31.70;57.00;;;;;;4978054;28;20223;-78
2023/06/09 12:25:43;;;;;;;20.98;19.95;;;33.30;55.80;;;;;;4977587;28;20711;-78
2023/06/09 12:28:31;;;;;;;30.58;28.88;;;33.00;55.00;;;;;;4978239;28;20189;-78
2023/06/09 12:31:09;;;;;;;22.58;21.45;;;31.50;56.20;;;;;;4980028;28;20215;-78
2023/06/09 12:33:36;;;;;;;13.25;12.65;;;31.30;57.30;;;;;;4964507;28;20212;-78
2023/06/09 12:36:09;;;;;;;10.00;9.50;;;30.60;57.60;;;;;;4978942;28;20296;-78
2023/06/09 12:38:38;;;;;;;16.00;15.18;;;30.40;58.20;;;;;;4979814;28;20193;-79
2023/06/09 12:41:09;;;;;;;9.68;9.27;;;30.20;59.20;;;;;;4985624;28;20200;-77
2023/06/09 12:43:55;;;;;;;9.20;8.80;;;31.20;57.60;;;;;;4990391;28;20193;-78
2023/06/09 12:46:40;;;;;;;11.77;11.07;;;31.50;56.20;;;;;;4983435;28;20216;-79
2023/06/09 12:49:08;;;;;;;29.13;27.58;;;32.10;56.50;;;;;;4974696;28;20200;-79
2023/06/09 12:51:36;;;;;;;8.88;8.48;;;33.30;53.80;;;;;;4982283;28;20216;-79
2023/06/09 12:54:04;;;;;;;4.95;4.75;;;34.20;52.20;;;;;;4979338;28;20279;-79
2023/06/09 12:56:30;;;;;;;5.10;4.80;;;34.80;51.30;;;;;;4979717;28;20275;-79
2023/06/09 12:58:56;;;;;;;5.68;5.18;;;35.00;50.40;;;;;;4979036;28;20431;-79
2023/06/09 13:01:25;;;;;;;4.78;4.57;;;34.60;51.00;;;;;;4979707;28;20228;-79
2023/06/09 13:03:52;;;;;;;4.65;4.28;;;34.20;50.40;;;;;;4961664;28;20197;-79
2023/06/09 13:06:17;;;;;;;5.75;5.05;;;33.30;51.10;;;;;;4979059;28;20292;-79
2023/06/09 13:08:43;;;;;;;6.28;5.97;;;33.00;52.30;;;;;;4960027;28;20231;-79
2023/06/09 13:11:12;;;;;;;5.72;5.43;;;33.50;52.20;;;;;;4960684;28;20212;-79
2023/06/09 13:13:42;;;;;;;6.43;5.93;;;34.50;50.40;;;;;;4961314;28;20189;-79
2023/06/09 13:16:08;;;;;;;19.63;18.63;;;35.30;49.10;;;;;;4970616;28;20328;-79
2023/06/09 13:18:34;;;;;;;27.00;25.60;;;35.90;48.70;;;;;;4960321;28;20212;-79
2023/06/09 13:21:00;;;;;;;11.95;11.35;;;36.20;47.40;;;;;;4977704;28;20188;-79
2023/06/09 13:23:26;;;;;;;27.67;26.20;;;35.20;45.70;;;;;;4963932;28;20200;-79
2023/06/09 13:25:52;;;;;;;7.82;7.43;;;33.40;47.80;;;;;;4979574;28;20209;-79
2023/06/09 13:28:19;;;;;;;7.32;6.93;;;32.00;50.30;;;;;;4982811;28;20189;-79
2023/06/09 13:30:45;;;;;;;11.27;10.68;;;31.00;52.60;;;;;;4972591;28;20252;-79
2023/06/09 13:33:11;;;;;;;7.88;7.47;;;31.80;52.40;;;;;;4961584;28;20209;-79
2023/06/09 13:35:38;;;;;;;6.68;6.28;;;32.40;50.20;;;;;;4967259;28;20209;-79
2023/06/09 13:38:04;;;;;;;8.52;6.45;;;32.70;50.40;;;;;;4975088;28;20331;-78
2023/06/09 13:40:30;;;;;;;7.32;6.93;;;33.60;49.30;;;;;;4957400;28;20185;-78
2023/06/09 13:42:56;;;;;;;14.05;13.32;;;33.70;48.90;;;;;;4975199;28;20201;-78
2023/06/09 13:45:23;;;;;;;19.50;18.42;;;34.40;48.30;;;;;;4975848;28;20219;-78
2023/06/09 13:47:49;;;;;;;25.02;23.48;;;35.70;46.80;;;;;;4958547;28;20563;-78
2023/06/09 13:50:15;;;;;;;25.38;24.17;;;35.70;46.70;;;;;;4975621;28;20244;-78
2023/06/09 13:52:42;;;;;;;29.42;27.92;;;35.80;46.40;;;;;;4958332;28;20573;-78
2023/06/09 13:55:09;;;;;;;32.92;31.15;;;34.90;47.10;;;;;;4976079;28;20654;-78
2023/06/09 13:57:38;;;;;;;7.60;7.20;;;33.80;48.70;;;;;;4975152;28;20219;-78
2023/06/09 14:00:07;;;;;;;6.95;6.45;;;32.00;49.70;;;;;;4976012;28;20215;-78
2023/06/09 14:02:32;;;;;;;6.85;6.30;;;32.00;50.50;;;;;;4978853;28;20578;-78
2023/06/09 14:05:00;;;;;;;8.57;8.07;;;32.10;50.10;;;;;;4961659;28;20204;-79
2023/06/09 14:07:26;;;;;;;14.07;13.38;;;31.60;51.40;;;;;;4980678;28;20253;-78
2023/06/09 14:09:54;;;;;;;12.07;11.45;;;31.60;50.70;;;;;;4978860;28;20189;-78
2023/06/09 14:12:21;;;;;;;17.42;16.05;;;31.40;51.00;;;;;;4965325;28;20228;-78
2023/06/09 14:14:47;;;;;;;26.90;25.48;;;30.90;52.00;;;;;;4981842;28;20189;-78
2023/06/09 14:17:13;;;;;;;33.05;31.27;;;30.20;52.30;;;;;;4980964;28;20343;-78
2023/06/09 14:19:38;;;;;;;27.90;26.55;;;30.40;52.00;;;;;;4980148;28;20184;-78
2023/06/09 14:22:05;;;;;;;9.32;8.82;;;31.70;50.60;;;;;;4979912;28;20196;-79
2023/06/09 14:24:31;;;;;;;11.93;11.32;;;33.60;47.80;;;;;;4963292;28;20240;-79
2023/06/09 14:26:58;;;;;;;18.85;17.85;;;35.20;45.70;;;;;;4964490;28;20213;-79
2023/06/09 14:29:24;;;;;;;23.50;21.67;;;35.80;45.70;;;;;;4978610;28;20201;-78
2023/06/09 14:31:51;;;;;;;18.83;17.92;;;35.50;45.20;;;;;;4977818;28;20216;-79
2023/06/09 14:34:17;;;;;;;15.48;14.68;;;35.20;45.50;;;;;;4977132;28;20211;-79
2023/06/09 14:36:43;;;;;;;17.55;16.58;;;35.60;44.20;;;;;;4960437;28;20220;-79
2023/06/09 14:39:10;;;;;;;15.93;15.02;;;35.20;44.20;;;;;;4959678;28;20497;-79
2023/06/09 14:41:36;;;;;;;21.42;20.33;;;35.30;44.70;;;;;;4964986;28;20231;-78
2023/06/09 14:44:02;;;;;;;10.68;10.02;;;35.30;44.50;;;;;;4980850;28;20666;-78
2023/06/09 14:46:28;;;;;;;9.52;9.05;;;35.50;43.50;;;;;;4976746;28;20223;-78
2023/06/09 14:48:53;;;;;;;21.00;19.75;;;36.00;43.80;;;;;;4975339;28;20414;-78
2023/06/09 14:51:19;;;;;;;9.80;9.25;;;35.70;44.10;;;;;;4958541;28;20291;-78
2023/06/09 14:53:45;;;;;;;12.45;11.73;;;36.10;44.10;;;;;;4959563;28;20188;-78
2023/06/09 14:56:13;;;;;;;13.20;12.40;;;36.60;42.60;;;;;;4975887;28;20239;-78
2023/06/09 14:58:39;;;;;;;36.80;34.90;;;35.40;43.80;;;;;;4951018;28;20244;-78
2023/06/09 15:01:05;;;;;;;19.30;18.30;;;32.80;46.30;;;;;;4965505;28;20188;-78
2023/06/09 15:03:31;;;;;;;9.55;8.43;;;31.50;48.00;;;;;;4982921;28;20193;-78
2023/06/09 15:05:57;;;;;;;29.15;27.65;;;30.50;50.20;;;;;;4964728;28;20626;-78
2023/06/09 15:08:22;;;;;;;29.55;27.98;;;29.60;51.70;;;;;;4973355;28;20685;-78
2023/06/09 15:10:48;;;;;;;28.45;26.80;;;30.10;51.70;;;;;;4982790;28;20783;-79
2023/06/09 15:13:16;;;;;;;15.68;14.65;;;31.60;50.20;;;;;;4983632;28;20552;-79
2023/06/09 15:15:44;;;;;;;9.73;9.02;;;32.70;48.30;;;;;;5005008;23;20203;-80
2023/06/09 15:18:11;;;;;;;18.33;17.30;;;33.80;46.50;;;;;;4983307;28;20184;-81
2023/06/09 15:20:38;;;;;;;16.70;15.82;;;34.40;44.90;;;;;;5006864;28;20192;-80
2023/06/09 15:23:05;;;;;;;18.48;17.50;;;33.60;45.20;;;;;;5005966;28;20188;-80
2023/06/09 15:25:36;;;;;;;16.25;15.38;;;33.40;45.50;;;;;;4987114;28;20187;-80
2023/06/09 15:28:09;;;;;;;16.15;14.80;;;33.30;45.50;;;;;;4967799;28;20193;-80
2023/06/09 15:30:46;;;;;;;23.60;22.13;;;33.60;45.40;;;;;;4969289;28;20295;-82
2023/06/09 15:33:21;;;;;;;26.65;24.90;;;34.10;44.20;;;;;;4990111;28;20259;-80
2023/06/09 15:35:52;;;;;;;25.77;24.48;;;34.00;43.50;;;;;;4998823;28;20208;-80
2023/06/09 15:38:20;;;;;;;26.63;25.30;;;33.80;43.60;;;;;;4981166;28;20252;-79
2023/06/09 15:40:48;;;;;;;26.10;24.80;;;33.10;44.20;;;;;;4965413;28;20196;-81